Time;durP1;ratioP1;P1;durP2;ratioP2;P2;SDS_P1;SDS_P2;PMS_P1;PMS_P2;Temp;Humidity;BMP_temperature;BMP_pressure;BME280_temperature;BME280_humidity;BME280_pressure;Samples;Min_cycle;Max_cycle;Signal;HPM_P1;HPM_P2
2021/09/20 00:01:46;;;;;;;0.97;0.90;;;;;;;16.93;74.51;100369.53;5009006;28;20405;-76
2021/09/20 00:04:11;;;;;;;0.90;0.90;;;;;;;16.89;74.58;100371.25;5007731;28;20416;-76
2021/09/20 00:06:36;;;;;;;1.50;1.10;;;;;;;16.94;74.47;100372.00;5010969;28;20404;-77
2021/09/20 00:09:02;;;;;;;1.00;1.00;;;;;;;17.01;74.45;100368.94;5008543;28;20412;-78
2021/09/20 00:11:27;;;;;;;1.08;0.80;;;;;;;17.04;74.15;100376.56;5009211;28;20424;-76
2021/09/20 00:13:52;;;;;;;1.63;0.93;;;;;;;16.99;74.30;100385.63;5007425;28;20895;-78
2021/09/20 00:16:18;;;;;;;0.70;0.70;;;;;;;16.97;74.51;100384.28;5006705;28;20405;-78
2021/09/20 00:18:43;;;;;;;0.60;0.60;;;;;;;16.99;74.31;100382.91;5007332;28;20408;-75
2021/09/20 00:21:09;;;;;;;3.10;0.77;;;;;;;17.02;74.14;100384.25;5010854;28;20407;-77
2021/09/20 00:23:34;;;;;;;1.00;1.00;;;;;;;17.04;74.27;100388.34;5006535;28;20428;-77
2021/09/20 00:25:59;;;;;;;0.90;0.90;;;;;;;17.01;74.31;100386.19;5011569;28;20401;-77
2021/09/20 00:28:25;;;;;;;1.00;1.00;;;;;;;17.01;74.38;100385.34;5012035;28;20420;-77
2021/09/20 00:30:51;;;;;;;0.70;0.70;;;;;;;17.02;74.29;100392.47;5011215;28;20436;-76
2021/09/20 00:33:16;;;;;;;0.90;0.90;;;;;;;16.96;74.82;100388.94;5004751;28;20459;-76
2021/09/20 00:35:42;;;;;;;1.13;1.07;;;;;;;16.98;74.71;100385.94;5005325;28;20515;-77
2021/09/20 00:38:08;;;;;;;0.88;0.88;;;;;;;16.98;74.81;100380.47;5007839;28;20811;-76
2021/09/20 00:40:33;;;;;;;1.20;1.20;;;;;;;17.01;74.45;100377.16;5011021;28;20432;-77
2021/09/20 00:43:01;;;;;;;1.60;0.97;;;;;;;17.01;74.69;100380.69;5008553;28;20911;-77
2021/09/20 00:45:26;;;;;;;1.40;1.30;;;;;;;16.95;74.98;100376.38;5006795;28;20992;-77
2021/09/20 00:47:52;;;;;;;1.30;1.30;;;;;;;16.95;75.11;100375.56;5004384;28;20426;-77
2021/09/20 00:50:20;;;;;;;2.60;1.10;;;;;;;16.96;75.23;100377.19;5007994;28;20428;-77
2021/09/20 00:52:45;;;;;;;1.10;1.02;;;;;;;16.97;75.00;100373.34;5009704;28;23181;-77
2021/09/20 00:55:11;;;;;;;2.63;1.40;;;;;;;16.90;75.17;100387.38;5009740;28;20492;-77
2021/09/20 00:57:39;;;;;;;1.80;1.17;;;;;;;16.83;75.65;100381.41;5007998;28;20404;-77
2021/09/20 01:00:06;;;;;;;1.40;1.30;;;;;;;16.81;75.93;100383.63;5010765;28;20401;-77
2021/09/20 01:02:31;;;;;;;1.40;1.40;;;;;;;16.79;76.02;100387.75;5008477;28;20500;-76
2021/09/20 01:04:56;;;;;;;1.43;1.43;;;;;;;16.78;76.07;100381.47;4985798;28;20401;-76
2021/09/20 01:07:22;;;;;;;1.43;1.33;;;;;;;16.79;76.08;100387.75;5010943;28;20407;-77
2021/09/20 01:09:47;;;;;;;1.30;1.30;;;;;;;16.79;76.11;100380.38;5007787;28;20435;-77
2021/09/20 01:12:13;;;;;;;4.00;1.20;;;;;;;16.80;76.26;100392.94;4987405;28;20490;-77
2021/09/20 01:14:39;;;;;;;1.50;1.40;;;;;;;16.85;75.89;100390.16;5007711;28;20417;-76
2021/09/20 01:17:05;;;;;;;1.93;1.30;;;;;;;16.89;75.84;100384.94;5010310;28;20892;-77
2021/09/20 01:19:31;;;;;;;1.65;1.60;;;;;;;16.89;75.74;100395.88;5009772;28;20401;-76
2021/09/20 01:22:00;;;;;;;1.60;1.50;;;;;;;16.86;76.03;100391.78;5008842;28;20471;-77
2021/09/20 01:24:26;;;;;;;1.90;1.80;;;;;;;16.90;75.88;100394.75;5008084;28;20405;-77
2021/09/20 01:26:58;;;;;;;1.43;1.33;;;;;;;16.89;75.89;100391.19;5007794;28;20429;-77
2021/09/20 01:29:23;;;;;;;1.33;1.25;;;;;;;16.90;75.74;100394.75;4984804;28;22004;-77
2021/09/20 01:31:52;;;;;;;2.73;1.30;;;;;;;16.92;75.51;100396.13;5005755;28;20421;-77
2021/09/20 01:34:18;;;;;;;1.15;1.05;;;;;;;16.92;75.55;100398.03;5007519;28;20417;-77
2021/09/20 01:36:43;;;;;;;1.90;1.80;;;;;;;16.85;76.04;100390.16;4992466;28;20408;-77
2021/09/20 01:39:16;;;;;;;2.37;2.27;;;;;;;16.78;76.35;100394.34;5005479;28;20455;-77
2021/09/20 01:41:42;;;;;;;3.50;3.30;;;;;;;16.78;76.16;100397.06;5005961;28;20424;-77
2021/09/20 01:44:10;;;;;;;3.55;2.75;;;;;;;16.78;75.67;100397.91;5006580;28;20409;-77
2021/09/20 01:46:35;;;;;;;3.95;3.65;;;;;;;16.82;75.20;100400.88;5009115;28;20481;-77
2021/09/20 01:49:01;;;;;;;3.97;3.67;;;;;;;16.79;75.16;100396.78;5008475;28;20436;-78
2021/09/20 01:51:27;;;;;;;3.92;3.58;;;;;;;16.76;75.58;100396.56;5010064;28;20397;-77
2021/09/20 01:53:52;;;;;;;4.07;3.78;;;;;;;16.79;74.90;100402.28;4992218;28;20920;-77
2021/09/20 01:56:18;;;;;;;4.93;4.53;;;;;;;16.80;75.01;100408.53;5008204;28;20410;-77
2021/09/20 01:58:43;;;;;;;4.73;4.43;;;;;;;16.71;75.22;100399.31;5006463;28;20428;-77
2021/09/20 02:01:11;;;;;;;5.40;4.90;;;;;;;16.64;75.55;100399.66;4993037;28;20483;-77
2021/09/20 02:03:36;;;;;;;5.80;5.00;;;;;;;16.60;75.30;100398.56;5005919;28;20518;-78
2021/09/20 02:06:02;;;;;;;5.33;4.87;;;;;;;16.67;75.36;100396.34;5008525;28;20491;-77
2021/09/20 02:08:27;;;;;;;7.97;5.10;;;;;;;16.70;75.17;100394.94;5007373;28;20450;-77
2021/09/20 02:10:52;;;;;;;6.97;5.32;;;;;;;16.67;75.19;100392.78;5010337;28;20908;-78
2021/09/20 02:13:20;;;;;;;4.90;4.50;;;;;;;16.69;75.43;100393.31;5008696;28;20416;-77
2021/09/20 02:15:46;;;;;;;6.57;5.15;;;;;;;16.70;75.27;100400.41;5012146;28;20420;-77
2021/09/20 02:18:11;;;;;;;4.67;4.37;;;;;;;16.67;75.44;100398.25;5011343;28;20418;-78
2021/09/20 02:20:36;;;;;;;5.00;4.70;;;;;;;16.64;75.51;100399.66;5012524;28;20405;-77
2021/09/20 02:23:01;;;;;;;5.83;4.87;;;;;;;16.64;75.32;100404.28;5007349;28;20474;-78
2021/09/20 02:25:27;;;;;;;5.23;4.80;;;;;;;16.56;76.09;100400.28;5013075;28;20412;-78
2021/09/20 02:27:52;;;;;;;5.47;4.97;;;;;;;16.56;76.01;100406.53;5011160;28;20438;-77
2021/09/20 02:30:17;;;;;;;5.03;4.53;;;;;;;16.62;75.72;100399.13;5007380;28;20420;-77
2021/09/20 02:32:43;;;;;;;6.10;5.60;;;;;;;16.67;75.67;100401.81;5010719;28;20421;-77
2021/09/20 02:35:08;;;;;;;5.37;4.87;;;;;;;16.64;75.86;100398.81;5012245;28;20892;-77
2021/09/20 02:37:39;;;;;;;5.30;4.90;;;;;;;16.63;75.94;100391.75;5010493;28;20547;-77
2021/09/20 02:40:07;;;;;;;5.70;5.20;;;;;;;16.60;76.50;100401.31;5013442;28;20945;-77
2021/09/20 02:42:33;;;;;;;6.88;5.90;;;;;;;16.61;76.45;100394.75;5011911;28;20420;-77
2021/09/20 02:44:58;;;;;;;7.28;5.90;;;;;;;16.62;76.35;100392.84;5011468;28;20413;-77
2021/09/20 02:47:23;;;;;;;5.60;5.10;;;;;;;16.58;76.61;100409.00;5007618;28;20394;-77
2021/09/20 02:49:49;;;;;;;7.20;5.77;;;;;;;16.59;76.52;100407.91;5008316;28;20484;-77
2021/09/20 02:52:14;;;;;;;6.10;5.60;;;;;;;16.56;76.60;100408.47;5011653;28;20412;-77
2021/09/20 02:54:39;;;;;;;6.33;5.53;;;;;;;16.57;76.89;100402.72;5011649;28;20796;-77
2021/09/20 02:57:05;;;;;;;6.30;5.73;;;;;;;16.58;76.60;100404.34;5013218;28;20436;-78
2021/09/20 02:59:30;;;;;;;6.40;5.90;;;;;;;16.56;76.64;100413.94;5009014;28;20449;-77
2021/09/20 03:01:55;;;;;;;7.20;6.50;;;;;;;16.57;76.48;100410.09;5004782;28;20419;-77
2021/09/20 03:04:20;;;;;;;6.10;5.70;;;;;;;16.55;76.84;100409.56;5004131;28;20412;-77
2021/09/20 03:06:46;;;;;;;6.22;5.63;;;;;;;16.51;76.95;100413.94;5011532;28;20420;-77
2021/09/20 03:09:11;;;;;;;6.43;5.93;;;;;;;16.51;76.99;100406.56;4992729;28;20415;-78
2021/09/20 03:11:36;;;;;;;9.43;6.03;;;;;;;16.51;76.83;100416.69;4996043;28;20440;-77
2021/09/20 03:14:02;;;;;;;6.97;6.27;;;;;;;16.59;76.38;100411.47;4997108;28;20941;-77
2021/09/20 03:16:27;;;;;;;8.33;6.50;;;;;;;16.69;76.15;100412.47;4996894;28;20416;-78
2021/09/20 03:18:53;;;;;;;6.32;5.72;;;;;;;16.67;76.12;100410.00;4997507;28;20478;-77
2021/09/20 03:21:23;;;;;;;6.63;6.00;;;;;;;16.65;76.00;100412.22;4995466;28;20417;-77
2021/09/20 03:23:49;;;;;;;7.03;6.43;;;;;;;16.68;75.85;100408.91;4999603;28;20424;-78
2021/09/20 03:26:14;;;;;;;7.27;6.57;;;;;;;16.65;75.62;100406.75;4995570;28;20469;-77
2021/09/20 03:28:39;;;;;;;7.47;6.82;;;;;;;16.62;76.01;100414.72;4996056;28;20568;-78
2021/09/20 03:31:05;;;;;;;6.80;6.20;;;;;;;16.60;75.98;100423.19;4995238;28;20535;-78
2021/09/20 03:33:30;;;;;;;7.43;6.80;;;;;;;16.64;76.08;100420.72;4996737;28;20441;-78
2021/09/20 03:35:55;;;;;;;6.87;6.07;;;;;;;16.48;76.31;100412.59;4996787;28;20935;-77
2021/09/20 03:38:21;;;;;;;7.00;6.40;;;;;;;16.43;76.83;100414.56;4995902;28;20436;-77
2021/09/20 03:40:46;;;;;;;6.97;6.27;;;;;;;16.41;76.88;100422.22;4997720;28;20511;-78
2021/09/20 03:43:11;;;;;;;7.27;6.37;;;;;;;16.43;76.84;100423.56;4997513;28;20424;-77
2021/09/20 03:45:36;;;;;;;7.77;7.07;;;;;;;16.40;76.94;100423.34;4997617;28;20452;-77
2021/09/20 03:48:02;;;;;;;6.77;6.27;;;;;;;16.37;77.04;100419.22;4994892;28;20418;-77
2021/09/20 03:50:27;;;;;;;8.70;6.93;;;;;;;16.43;76.79;100426.31;4995731;28;20427;-77
2021/09/20 03:52:52;;;;;;;7.00;6.40;;;;;;;16.48;76.75;100423.53;4980180;28;20892;-77
2021/09/20 03:55:18;;;;;;;7.00;6.27;;;;;;;16.47;76.56;100434.75;4997230;28;20504;-77
2021/09/20 03:57:43;;;;;;;6.18;5.65;;;;;;;16.45;76.54;100428.75;4997458;28;20465;-77
2021/09/20 04:00:10;;;;;;;6.53;6.03;;;;;;;16.44;76.88;100421.66;4996601;28;20408;-77
2021/09/20 04:02:35;;;;;;;6.57;5.63;;;;;;;16.44;76.57;100421.66;4995481;28;20789;-77
2021/09/20 04:05:01;;;;;;;6.47;5.00;;;;;;;16.46;76.43;100428.50;4998591;28;20516;-78
2021/09/20 04:07:26;;;;;;;5.53;5.03;;;;;;;16.49;76.03;100425.19;4995335;28;20416;-78
2021/09/20 04:09:51;;;;;;;6.50;5.80;;;;;;;16.50;75.87;100429.53;4995117;28;20421;-77
2021/09/20 04:12:17;;;;;;;6.97;5.45;;;;;;;16.47;75.88;100434.75;4997296;28;20999;-78
2021/09/20 04:14:42;;;;;;;5.80;5.30;;;;;;;16.40;75.89;100437.03;5010410;28;20408;-77
2021/09/20 04:17:08;;;;;;;5.43;5.03;;;;;;;16.39;76.03;100440.84;5009908;28;20445;-77
2021/09/20 04:19:33;;;;;;;5.90;5.30;;;;;;;16.41;75.95;100442.19;5004112;28;20423;-78
2021/09/20 04:21:59;;;;;;;6.22;5.78;;;;;;;16.39;75.53;100438.94;5005486;28;20413;-78
2021/09/20 04:24:25;;;;;;;6.65;5.75;;;;;;;16.36;75.46;100434.03;5007465;28;20409;-77
2021/09/20 04:26:50;;;;;;;5.87;5.37;;;;;;;16.36;75.64;100434.03;4992110;28;20424;-77
2021/09/20 04:29:15;;;;;;;6.25;5.68;;;;;;;16.32;75.42;100435.69;5000267;28;20472;-77
2021/09/20 04:31:41;;;;;;;7.97;5.43;;;;;;;16.32;75.77;100441.16;4999584;28;20470;-77
2021/09/20 04:34:06;;;;;;;6.67;5.83;;;;;;;16.44;75.23;100446.25;5005989;28;20475;-77
2021/09/20 04:36:31;;;;;;;6.33;5.83;;;;;;;16.46;75.07;100447.63;4982823;28;20619;-77
2021/09/20 04:38:56;;;;;;;6.57;5.93;;;;;;;16.50;74.93;100451.41;5006286;28;20427;-77
2021/09/20 04:41:22;;;;;;;6.20;5.70;;;;;;;16.42;74.81;100449.31;4989273;28;20409;-77
2021/09/20 04:43:47;;;;;;;5.72;5.20;;;;;;;16.41;75.08;100444.09;5011865;28;20563;-77
2021/09/20 04:46:12;;;;;;;6.73;5.50;;;;;;;16.37;74.54;100449.31;5005893;28;20405;-77
2021/09/20 04:48:38;;;;;;;6.13;5.67;;;;;;;16.39;74.11;100443.56;5004413;28;20426;-77
2021/09/20 04:51:03;;;;;;;5.78;5.38;;;;;;;16.42;73.81;100449.31;5006027;28;20408;-77
2021/09/20 04:53:28;;;;;;;5.77;5.20;;;;;;;16.39;74.18;100451.78;5004130;28;20409;-77
2021/09/20 04:55:54;;;;;;;6.13;5.63;;;;;;;16.33;74.27;100453.75;4988918;28;20927;-78
2021/09/20 04:58:19;;;;;;;5.72;5.32;;;;;;;16.29;74.20;100452.66;5005587;28;20412;-77
2021/09/20 05:00:45;;;;;;;6.30;5.70;;;;;;;16.29;73.71;100460.03;5004650;28;20452;-77
2021/09/20 05:03:10;;;;;;;6.47;5.97;;;;;;;16.28;73.53;100469.34;5001011;28;20469;-77
2021/09/20 05:05:36;;;;;;;5.93;5.50;;;;;;;16.26;74.24;100469.63;4998891;28;20426;-78
2021/09/20 05:08:02;;;;;;;5.80;5.43;;;;;;;16.22;73.79;100465.81;5004429;28;20429;-77
2021/09/20 05:10:27;;;;;;;5.97;5.38;;;;;;;16.24;73.84;100468.25;5002375;28;20460;-77
2021/09/20 05:12:55;;;;;;;5.70;5.20;;;;;;;16.32;72.96;100467.69;5000273;28;20417;-77
2021/09/20 05:15:24;;;;;;;6.00;5.57;;;;;;;16.36;72.57;100475.06;4992124;28;20416;-78
2021/09/20 05:17:49;;;;;;;5.97;5.57;;;;;;;16.33;72.58;100478.34;4994102;28;20484;-77
2021/09/20 05:20:15;;;;;;;6.30;5.87;;;;;;;16.34;73.00;100476.41;4987775;28;21034;-76
2021/09/20 05:22:42;;;;;;;5.57;5.07;;;;;;;16.42;72.18;100478.56;5005085;28;20421;-77
2021/09/20 05:25:09;;;;;;;5.72;5.20;;;;;;;16.41;72.07;100472.28;4995234;28;20417;-76
2021/09/20 05:27:35;;;;;;;5.60;5.10;;;;;;;16.25;72.95;100478.13;4987124;28;20435;-77
2021/09/20 05:30:02;;;;;;;6.53;5.87;;;;;;;16.16;72.76;100477.91;4998737;28;20461;-77
2021/09/20 05:32:28;;;;;;;6.72;6.00;;;;;;;16.16;73.25;100480.63;5005757;28;20410;-76
2021/09/20 05:34:54;;;;;;;6.18;5.63;;;;;;;16.18;73.12;100470.22;5001920;28;20417;-76
2021/09/20 05:37:19;;;;;;;5.90;5.50;;;;;;;16.23;73.58;100480.31;5000057;28;22122;-77
2021/09/20 05:39:45;;;;;;;6.57;5.57;;;;;;;16.24;73.03;100480.03;5002149;28;20463;-76
2021/09/20 05:42:10;;;;;;;5.95;5.35;;;;;;;16.28;72.49;100481.09;4999784;28;20519;-77
2021/09/20 05:44:36;;;;;;;6.00;5.57;;;;;;;16.31;73.14;100487.91;4996723;28;20800;-78
2021/09/20 05:47:01;;;;;;;6.75;6.07;;;;;;;16.29;73.25;100484.66;4999688;28;20475;-81
2021/09/20 05:49:26;;;;;;;6.17;5.77;;;;;;;16.29;73.09;100479.19;5000459;28;20765;-77
2021/09/20 05:51:52;;;;;;;6.47;5.93;;;;;;;16.28;73.28;100494.78;5003167;28;20827;-77
2021/09/20 05:54:17;;;;;;;6.57;6.07;;;;;;;16.27;73.53;100486.88;5005064;28;20404;-77
2021/09/20 05:56:43;;;;;;;11.00;5.83;;;;;;;16.27;73.58;100487.66;5010185;28;20463;-77
2021/09/20 05:59:08;;;;;;;6.17;5.60;;;;;;;16.28;73.64;100483.00;5008437;28;20434;-76
2021/09/20 06:01:33;;;;;;;11.37;6.10;;;;;;;16.30;73.59;100487.09;4988422;28;20840;-77
2021/09/20 06:03:59;;;;;;;6.57;6.10;;;;;;;16.31;73.43;100490.66;5003961;28;20503;-77
2021/09/20 06:06:24;;;;;;;7.13;6.37;;;;;;;16.30;73.61;100489.03;5008861;28;20440;-77
2021/09/20 06:08:49;;;;;;;6.50;6.00;;;;;;;16.28;73.57;100494.78;4993403;28;20416;-77
2021/09/20 06:11:15;;;;;;;6.07;5.57;;;;;;;16.30;73.52;100495.31;5005555;28;20420;-78
2021/09/20 06:13:41;;;;;;;7.15;5.80;;;;;;;16.30;73.28;100492.56;4989392;28;20432;-77
2021/09/20 06:16:07;;;;;;;7.93;6.10;;;;;;;16.31;73.11;100498.84;5005543;28;20420;-76
2021/09/20 06:18:34;;;;;;;8.02;6.20;;;;;;;16.28;72.97;100494.78;5006775;28;20419;-76
2021/09/20 06:21:00;;;;;;;7.65;5.85;;;;;;;16.27;73.09;100501.34;5002929;28;20481;-77
2021/09/20 06:23:26;;;;;;;7.47;6.07;;;;;;;16.29;73.26;100503.81;5002169;28;20508;-76
2021/09/20 06:25:51;;;;;;;8.87;6.40;;;;;;;16.31;72.96;100504.31;5011050;28;20404;-76
2021/09/20 06:28:16;;;;;;;8.60;5.47;;;;;;;16.34;73.24;100498.28;5006908;28;20499;-76
2021/09/20 06:30:42;;;;;;;8.47;6.27;;;;;;;16.32;72.72;100501.31;5007606;28;20471;-76
2021/09/20 06:33:07;;;;;;;7.75;6.32;;;;;;;16.34;72.85;100498.28;5007184;28;20953;-77
2021/09/20 06:35:36;;;;;;;6.60;6.10;;;;;;;16.42;72.88;100498.53;5009063;28;20499;-76
2021/09/20 06:38:02;;;;;;;7.32;6.15;;;;;;;16.45;73.14;100500.72;5002675;28;20408;-76
2021/09/20 06:40:28;;;;;;;8.38;6.13;;;;;;;16.50;72.93;100497.09;5009793;28;20725;-76
2021/09/20 06:42:54;;;;;;;6.80;6.18;;;;;;;16.52;72.62;100503.13;4989339;28;20430;-77
2021/09/20 06:45:19;;;;;;;6.97;6.13;;;;;;;16.51;72.45;100505.03;4989558;28;20410;-77
2021/09/20 06:47:47;;;;;;;6.97;6.28;;;;;;;16.49;72.76;100504.53;5002683;28;21265;-77
2021/09/20 06:50:13;;;;;;;6.80;6.20;;;;;;;16.51;72.62;100507.78;5008194;28;20516;-76
2021/09/20 06:52:38;;;;;;;6.30;5.72;;;;;;;16.49;72.46;100506.44;5004436;28;20417;-77
2021/09/20 06:55:05;;;;;;;6.43;5.90;;;;;;;16.49;72.50;100506.44;5005873;28;20417;-76
2021/09/20 06:57:31;;;;;;;6.75;6.15;;;;;;;16.50;72.90;100510.78;5007307;28;20408;-77
2021/09/20 06:59:57;;;;;;;6.73;6.10;;;;;;;16.52;72.66;100516.81;5005358;28;22825;-77
2021/09/20 07:02:22;;;;;;;8.65;6.75;;;;;;;16.51;72.53;100507.78;5011319;28;20405;-77
2021/09/20 07:04:47;;;;;;;18.70;7.63;;;;;;;16.53;72.53;100507.50;4991211;28;20429;-76
2021/09/20 07:07:17;;;;;;;14.88;7.32;;;;;;;16.58;72.18;100505.56;5008959;28;20411;-77
2021/09/20 07:09:44;;;;;;;10.43;7.50;;;;;;;16.65;72.43;100498.97;5005125;28;20459;-77
2021/09/20 07:12:11;;;;;;;11.02;7.47;;;;;;;16.73;72.27;100506.59;5006303;28;20420;-77
2021/09/20 07:14:36;;;;;;;12.73;7.13;;;;;;;16.76;71.42;100509.53;5009969;28;20424;-76
2021/09/20 07:17:03;;;;;;;12.75;7.20;;;;;;;16.78;71.63;100509.28;5009659;28;20409;-76
2021/09/20 07:19:28;;;;;;;12.80;7.72;;;;;;;16.83;71.84;100509.22;4988785;28;20456;-76
2021/09/20 07:21:53;;;;;;;17.10;7.37;;;;;;;16.89;71.11;100511.66;5005330;28;20416;-79
2021/09/20 07:24:18;;;;;;;9.88;7.75;;;;;;;16.94;71.23;100514.34;5009092;28;20451;-76
2021/09/20 07:26:44;;;;;;;13.73;8.50;;;;;;;17.01;71.08;100511.28;4992803;28;20417;-77
2021/09/20 07:29:09;;;;;;;11.87;9.60;;;;;;;17.04;70.80;100519.75;5010959;28;20912;-77
2021/09/20 07:31:35;;;;;;;12.00;9.37;;;;;;;17.04;71.04;100516.19;4995679;28;20504;-77
2021/09/20 07:34:00;;;;;;;12.80;9.73;;;;;;;17.09;71.41;100518.91;5009822;28;20417;-76
2021/09/20 07:36:26;;;;;;;12.27;9.18;;;;;;;17.13;71.20;100515.28;5009558;28;20823;-77
2021/09/20 07:38:51;;;;;;;10.37;9.37;;;;;;;17.16;71.43;100524.06;4992708;28;20412;-77
2021/09/20 07:41:17;;;;;;;10.50;8.93;;;;;;;17.18;71.33;100528.13;5007711;28;20404;-80
2021/09/20 07:43:45;;;;;;;11.83;8.63;;;;;;;17.17;71.28;100526.50;5008696;28;20417;-76
2021/09/20 07:46:14;;;;;;;14.80;9.90;;;;;;;17.21;71.20;100532.22;5010788;28;20419;-76
2021/09/20 07:48:40;;;;;;;10.35;9.07;;;;;;;17.22;71.00;100533.84;5009905;28;20788;-77
2021/09/20 07:51:05;;;;;;;10.50;8.77;;;;;;;17.20;70.95;100533.31;5009610;28;20408;-77
2021/09/20 07:53:31;;;;;;;10.73;8.83;;;;;;;17.18;71.41;100536.34;4991488;28;20909;-77
2021/09/20 07:55:56;;;;;;;11.87;9.60;;;;;;;17.08;71.27;100540.00;5010976;28;20408;-76
2021/09/20 07:58:21;;;;;;;15.43;8.97;;;;;;;17.08;71.04;100539.16;5005490;28;20430;-77
2021/09/20 08:00:47;;;;;;;13.43;8.07;;;;;;;17.12;71.19;100534.75;5010916;28;20465;-76
2021/09/20 08:03:12;;;;;;;12.30;8.47;;;;;;;17.20;70.56;100536.06;5009719;28;20424;-77
2021/09/20 08:05:45;;;;;;;16.02;8.73;;;;;;;17.30;70.23;100538.69;5011706;28;20408;-76
2021/09/20 08:08:10;;;;;;;13.98;9.20;;;;;;;17.28;69.91;100544.50;5011430;28;20760;-77
2021/09/20 08:10:37;;;;;;;13.80;9.27;;;;;;;17.28;69.85;100549.13;4985766;28;20455;-76
2021/09/20 08:13:04;;;;;;;15.57;8.68;;;;;;;17.24;69.70;100548.91;4970777;28;20424;-77
2021/09/20 08:15:30;;;;;;;12.10;8.38;;;;;;;17.26;69.75;100549.41;4973426;28;20438;-77
2021/09/20 08:17:56;;;;;;;15.63;8.20;;;;;;;17.31;69.51;100548.56;4971080;28;20460;-76
2021/09/20 08:20:21;;;;;;;12.07;8.20;;;;;;;17.43;69.29;100557.22;4967684;28;20408;-77
2021/09/20 08:22:52;;;;;;;14.07;9.07;;;;;;;17.58;68.91;100551.66;4967422;28;20550;-77
2021/09/20 08:25:21;;;;;;;11.48;7.85;;;;;;;17.75;68.94;100552.00;4973413;28;20503;-76
2021/09/20 08:27:48;;;;;;;11.50;7.53;;;;;;;17.91;67.88;100547.19;4972569;28;20452;-77
2021/09/20 08:30:14;;;;;;;8.18;7.07;;;;;;;17.99;66.95;100546.53;4967236;28;20411;-77
2021/09/20 08:32:40;;;;;;;17.83;9.07;;;;;;;18.06;66.96;100550.56;4965488;28;20498;-77
2021/09/20 08:35:06;;;;;;;8.45;7.75;;;;;;;18.11;66.72;100550.50;4973104;28;20911;-76
2021/09/20 08:37:32;;;;;;;8.90;7.13;;;;;;;18.21;66.73;100549.56;4971099;28;20419;-79
2021/09/20 08:39:57;;;;;;;12.55;7.50;;;;;;;18.30;66.03;100549.75;4972606;28;20764;-77
2021/09/20 08:42:25;;;;;;;10.03;7.77;;;;;;;18.32;65.90;100555.72;4970815;28;20483;-77
2021/09/20 08:44:51;;;;;;;8.30;7.50;;;;;;;18.29;66.30;100559.88;4977905;28;20416;-77
2021/09/20 08:47:18;;;;;;;11.55;7.60;;;;;;;18.21;66.14;100563.25;4971176;28;20412;-77
2021/09/20 08:49:44;;;;;;;8.63;7.75;;;;;;;18.11;66.64;100564.22;4967935;28;20414;-77
2021/09/20 08:52:11;;;;;;;10.65;9.02;;;;;;;18.00;66.77;100565.44;4971932;28;20406;-77
2021/09/20 08:54:37;;;;;;;17.38;9.23;;;;;;;17.91;67.62;100569.13;4969322;28;20400;-77
2021/09/20 08:57:08;;;;;;;10.23;8.70;;;;;;;17.78;67.63;100578.03;4969351;28;20439;-77
2021/09/20 08:59:33;;;;;;;13.63;9.88;;;;;;;17.69;68.50;100579.75;4980512;28;20416;-77
2021/09/20 09:01:59;;;;;;;12.13;9.80;;;;;;;17.68;68.49;100589.09;4987768;28;20416;-77
2021/09/20 09:04:31;;;;;;;11.05;9.95;;;;;;;17.66;68.69;100586.63;4968330;28;20419;-77
2021/09/20 09:07:04;;;;;;;12.05;9.13;;;;;;;17.64;68.98;100588.84;4970779;28;20499;-77
2021/09/20 09:09:35;;;;;;;13.57;10.40;;;;;;;17.67;69.33;100599.22;4970893;28;20408;-77
2021/09/20 09:12:07;;;;;;;12.13;10.20;;;;;;;17.73;69.38;100594.50;5002692;28;20409;-77
2021/09/20 09:14:45;;;;;;;12.88;10.65;;;;;;;17.79;69.28;100596.09;5009436;28;20487;-76
2021/09/20 09:17:41;;;;;;;14.95;10.80;;;;;;;17.80;69.10;100595.00;5008200;28;20415;-77
2021/09/20 09:20:19;;;;;;;12.15;10.75;;;;;;;17.75;68.74;100598.59;5007634;28;20432;-77
2021/09/20 09:22:48;;;;;;;15.20;10.75;;;;;;;17.73;68.86;100592.59;4999451;28;20452;-77
2021/09/20 09:25:22;;;;;;;13.10;10.20;;;;;;;17.79;68.95;100602.41;4993893;28;20915;-76
2021/09/20 09:27:49;;;;;;;11.60;9.35;;;;;;;17.81;68.84;100596.63;5007857;28;20439;-77
2021/09/20 09:30:15;;;;;;;11.17;10.10;;;;;;;17.85;68.55;100594.97;5009847;28;20425;-77
2021/09/20 09:32:49;;;;;;;12.23;10.10;;;;;;;17.86;68.52;100596.56;5009026;28;21211;-77
2021/09/20 09:35:19;;;;;;;10.82;9.68;;;;;;;17.85;68.94;100601.22;4987387;28;20931;-77
2021/09/20 09:37:48;;;;;;;10.15;9.25;;;;;;;17.87;68.61;100598.22;4991955;28;20763;-77
2021/09/20 09:40:20;;;;;;;11.60;9.45;;;;;;;17.86;68.60;100597.41;5009078;28;20408;-77
2021/09/20 09:42:46;;;;;;;12.37;9.00;;;;;;;17.93;68.11;100594.31;4999611;28;20420;-77
2021/09/20 09:45:33;;;;;;;10.53;9.20;;;;;;;17.91;68.01;100588.31;5010263;28;20412;-76
2021/09/20 09:48:16;;;;;;;11.05;9.80;;;;;;;17.92;68.09;100595.41;4999401;28;20402;-77
2021/09/20 09:50:46;;;;;;;10.57;8.45;;;;;;;17.90;68.27;100598.47;5001143;28;20524;-77
2021/09/20 09:53:30;;;;;;;11.32;8.88;;;;;;;17.93;67.99;100591.56;4993974;28;20403;-77
2021/09/20 09:56:01;;;;;;;14.02;9.07;;;;;;;17.92;67.91;100592.66;5002888;28;20954;-77
2021/09/20 09:58:29;;;;;;;12.70;9.15;;;;;;;17.93;67.89;100594.31;5005103;28;20451;-77
2021/09/20 10:01:15;;;;;;;12.30;8.43;;;;;;;17.94;68.21;100599.53;5004548;28;20804;-77
2021/09/20 10:04:06;;;;;;;10.40;9.07;;;;;;;17.98;68.09;100602.50;5008828;28;20421;-77
2021/09/20 10:06:41;;;;;;;9.95;9.15;;;;;;;18.08;67.47;100594.13;5011629;28;20852;-77
2021/09/20 10:09:11;;;;;;;9.73;8.90;;;;;;;18.38;66.30;100590.22;5009166;28;20411;-76
2021/09/20 10:11:46;;;;;;;9.80;8.80;;;;;;;18.97;64.85;100590.53;4991585;28;20471;-77
2021/09/20 10:14:16;;;;;;;10.20;9.20;;;;;;;19.37;63.25;100589.09;4989951;28;20447;-77
2021/09/20 10:16:43;;;;;;;9.60;8.77;;;;;;;19.38;62.56;100600.91;5010657;28;20488;-77
2021/09/20 10:19:08;;;;;;;10.53;9.50;;;;;;;19.37;62.86;100596.53;5005843;28;20404;-77
2021/09/20 10:21:34;;;;;;;12.50;8.83;;;;;;;19.37;63.03;100594.59;5010547;28;20428;-77
2021/09/20 10:24:00;;;;;;;11.77;9.55;;;;;;;19.26;62.86;100603.31;5007186;28;20430;-76
2021/09/20 10:26:27;;;;;;;11.77;10.10;;;;;;;19.15;63.02;100597.16;5010322;28;20405;-77
2021/09/20 10:28:56;;;;;;;12.05;10.00;;;;;;;19.02;63.89;100598.72;5006870;28;20426;-77
2021/09/20 10:31:24;;;;;;;11.20;10.20;;;;;;;18.87;63.94;100609.91;5010289;28;20419;-77
2021/09/20 10:34:19;;;;;;;11.93;10.10;;;;;;;18.86;64.51;100599.25;5008457;28;20428;-77
2021/09/20 10:36:57;;;;;;;11.43;10.32;;;;;;;18.73;64.19;100600.78;5009224;28;20435;-78
2021/09/20 10:39:44;;;;;;;12.18;10.85;;;;;;;18.65;65.18;100598.69;5011107;28;20423;-77
2021/09/20 10:42:43;;;;;;;12.90;11.60;;;;;;;18.58;64.59;100601.81;5003390;28;20408;-77
2021/09/20 10:45:29;;;;;;;13.50;11.20;;;;;;;18.46;65.21;100604.13;5008103;28;20409;-77
2021/09/20 10:47:54;;;;;;;12.83;11.53;;;;;;;18.40;65.47;100602.56;5005590;28;20469;-77
2021/09/20 10:51:02;;;;;;;13.83;11.17;;;;;;;18.37;65.81;100600.41;5017252;28;20419;-77
2021/09/20 10:53:34;;;;;;;12.15;10.68;;;;;;;18.39;66.13;100597.34;5004081;28;20496;-77
2021/09/20 10:56:03;;;;;;;13.98;10.50;;;;;;;18.34;65.94;100600.19;5013689;28;20400;-77
2021/09/20 10:58:32;;;;;;;12.17;10.87;;;;;;;18.33;66.15;100604.84;4995443;28;20896;-77
2021/09/20 11:01:16;;;;;;;12.38;11.07;;;;;;;18.33;65.82;100601.28;4996020;28;20401;-77
2021/09/20 11:03:45;;;;;;;13.70;10.85;;;;;;;18.34;66.02;100598.22;4996702;28;20848;-77
2021/09/20 11:06:24;;;;;;;17.73;11.82;;;;;;;18.36;65.98;100603.44;5013562;28;20471;-77
2021/09/20 11:09:15;;;;;;;16.75;11.75;;;;;;;18.47;65.54;100604.94;5009179;28;20500;-77
2021/09/20 11:11:42;;;;;;;13.90;12.40;;;;;;;18.56;64.69;100608.72;5011262;28;20413;-77
2021/09/20 11:14:12;;;;;;;13.93;12.43;;;;;;;18.67;64.24;100601.16;5013189;28;20888;-77
2021/09/20 11:16:49;;;;;;;14.17;12.73;;;;;;;18.94;63.51;100601.31;5012659;28;20412;-77
2021/09/20 11:19:31;;;;;;;14.52;12.00;;;;;;;19.30;62.27;100601.63;5011715;28;20421;-77
2021/09/20 11:22:05;;;;;;;18.67;12.40;;;;;;;20.08;60.41;100604.38;5006732;28;20398;-77
2021/09/20 11:24:31;;;;;;;13.75;12.23;;;;;;;20.71;58.07;100599.78;5003939;28;20999;-77